Time;durP1;ratioP1;P1;durP2;ratioP2;P2;SDS_P1;SDS_P2;PMS_P1;PMS_P2;Temp;Humidity;BMP_temperature;BMP_pressure;BME280_temperature;BME280_humidity;BME280_pressure;Samples;Min_cycle;Max_cycle;Signal;HPM_P1;HPM_P2
2023/11/08 00:01:58;;;;;;;39.50;15.30;;;;;;;12.25;76.21;99237.38;109619;1251;67269;-56
2023/11/08 00:04:25;;;;;;;29.00;13.70;;;;;;;12.09;77.55;99231.64;109388;1253;72252;-56
2023/11/08 00:06:53;;;;;;;23.00;11.10;;;;;;;12.08;78.02;99228.52;109620;1252;59784;-56
2023/11/08 00:09:20;;;;;;;21.00;12.90;;;;;;;12.19;77.64;99219.79;109528;1253;58804;-56
2023/11/08 00:11:49;;;;;;;33.20;15.70;;;;;;;12.23;77.32;99220.11;109551;1253;73857;-57
2023/11/08 00:14:16;;;;;;;170.90;67.20;;;;;;;12.18;77.83;99215.21;109511;1256;67543;-56
2023/11/08 00:16:44;;;;;;;148.30;59.20;;;;;;;12.16;77.97;99208.01;109512;1252;71416;-56
2023/11/08 00:19:16;;;;;;;38.60;17.80;;;;;;;12.10;78.30;99197.31;109212;1253;59698;-55
2023/11/08 00:21:43;;;;;;;44.90;21.10;;;;;;;12.00;79.46;99191.85;109163;1253;60031;-55
2023/11/08 00:24:11;;;;;;;47.40;24.50;;;;;;;12.05;79.03;99190.70;109226;1252;73869;-56
2023/11/08 00:26:39;;;;;;;56.40;27.70;;;;;;;11.98;78.99;99187.65;109506;1253;68743;-56
2023/11/08 00:29:06;;;;;;;44.60;21.20;;;;;;;11.93;79.51;99185.94;109483;1253;72666;-56
2023/11/08 00:31:34;;;;;;;40.20;19.90;;;;;;;11.91;79.59;99179.81;109256;1253;59791;-56
2023/11/08 00:34:02;;;;;;;33.70;14.70;;;;;;;11.94;79.34;99183.14;109547;1253;59069;-57
2023/11/08 00:36:30;;;;;;;25.10;14.00;;;;;;;12.05;78.50;99179.24;109507;1252;73829;-57
2023/11/08 00:38:57;;;;;;;28.30;16.30;;;;;;;12.06;78.41;99180.11;109521;1252;67088;-56
2023/11/08 00:41:25;;;;;;;28.10;15.90;;;;;;;12.12;78.73;99180.21;109493;1252;71492;-57
2023/11/08 00:43:56;;;;;;;25.60;15.10;;;;;;;12.03;79.96;99177.80;109533;1253;59943;-56
2023/11/08 00:46:24;;;;;;;27.90;15.60;;;;;;;12.04;80.45;99177.58;109542;1253;58835;-56
2023/11/08 00:48:52;;;;;;;30.40;15.50;;;;;;;12.14;79.31;99179.17;109287;1252;72877;-56
2023/11/08 00:51:20;;;;;;;24.40;14.90;;;;;;;12.11;79.49;99178.64;109263;1253;67123;-56
2023/11/08 00:53:47;;;;;;;22.60;14.00;;;;;;;12.01;80.11;99173.17;109510;1253;72725;-56
2023/11/08 00:56:16;;;;;;;31.10;17.50;;;;;;;12.03;80.22;99167.85;109508;1257;59611;-56
2023/11/08 00:58:43;;;;;;;28.00;17.20;;;;;;;12.13;79.09;99161.80;109550;1253;60019;-57
2023/11/08 01:01:11;;;;;;;31.10;18.90;;;;;;;12.21;78.68;99162.52;109368;1254;73894;-57
2023/11/08 01:03:38;;;;;;;45.80;26.50;;;;;;;12.23;78.78;99160.15;109283;1253;68392;-57
2023/11/08 01:06:06;;;;;;;40.80;25.80;;;;;;;12.26;78.67;99153.69;109295;1253;71687;-56
2023/11/08 01:08:34;;;;;;;32.10;18.80;;;;;;;12.27;78.51;99149.97;109385;1253;59550;-56
2023/11/08 01:11:01;;;;;;;47.30;26.30;;;;;;;12.25;78.20;99148.47;109471;1253;58737;-57
2023/11/08 01:13:31;;;;;;;30.40;18.30;;;;;;;12.30;77.88;99142.80;109202;1253;72871;-57
2023/11/08 01:15:58;;;;;;;34.10;22.20;;;;;;;12.21;78.27;99144.02;109163;1253;67148;-56
2023/11/08 01:18:26;;;;;;;26.00;16.70;;;;;;;11.93;80.46;99145.27;109456;1253;72598;-56
2023/11/08 01:20:54;;;;;;;32.80;19.80;;;;;;;11.93;80.91;99143.30;109425;1254;59534;-57
2023/11/08 01:23:23;;;;;;;41.50;23.30;;;;;;;12.08;79.87;99143.25;109484;1253;58536;-56
2023/11/08 01:25:51;;;;;;;47.20;25.40;;;;;;;12.09;79.76;99143.79;109471;1253;72626;-57
2023/11/08 01:28:19;;;;;;;41.50;23.30;;;;;;;12.23;78.54;99150.20;109473;1253;67067;-57
2023/11/08 01:30:47;;;;;;;;;;;;;;;12.24;77.91;99147.52;109488;1253;72657;-57
2023/11/08 01:33:15;;;;;;;31.80;16.40;;;;;;;12.23;78.42;99154.13;109509;1254;61059;-57
2023/11/08 01:35:44;;;;;;;26.60;16.10;;;;;;;12.21;78.39;99150.52;109470;1253;60162;-56
2023/11/08 01:38:12;;;;;;;21.50;14.60;;;;;;;12.25;77.98;99151.16;109511;1254;73784;-56
2023/11/08 01:40:43;;;;;;;20.50;14.10;;;;;;;12.28;77.91;99151.69;109266;1253;67112;-56
2023/11/08 01:43:27;;;;;;;23.40;14.80;;;;;;;12.28;77.98;99142.70;109427;1253;71340;-56
2023/11/08 01:46:12;;;;;;;29.80;14.90;;;;;;;12.37;77.23;99137.93;109450;1253;59649;-56
2023/11/08 01:48:40;;;;;;;33.80;17.80;;;;;;;12.44;76.89;99131.06;109205;1254;58683;-56
2023/11/08 01:51:08;;;;;;;47.10;22.50;;;;;;;12.52;76.22;99124.94;109491;1253;73857;-57
2023/11/08 01:53:40;;;;;;;26.10;16.40;;;;;;;12.42;76.47;99127.41;109462;1254;67140;-60
2023/11/08 01:56:09;;;;;;;40.60;21.30;;;;;;;12.28;76.03;99133.88;109114;1254;71499;-57
2023/11/08 01:58:40;;;;;;;23.30;14.70;;;;;;;12.11;76.58;99131.20;109459;1254;60919;-59
2023/11/08 02:01:08;;;;;;;23.70;14.70;;;;;;;12.05;78.05;99126.20;109179;1254;60014;-59
2023/11/08 02:03:39;;;;;;;27.00;14.70;;;;;;;12.17;76.59;99116.91;109367;1253;72520;-59
2023/11/08 02:06:07;;;;;;;25.80;16.00;;;;;;;11.99;77.17;99115.36;109270;1252;68806;-59
2023/11/08 02:08:35;;;;;;;25.50;15.90;;;;;;;11.98;77.00;99111.00;109605;1252;72674;-57
2023/11/08 02:11:03;;;;;;;23.00;14.70;;;;;;;11.98;77.11;99099.91;109336;1252;60905;-57
2023/11/08 02:13:33;;;;;;;24.70;14.30;;;;;;;11.89;77.57;99097.89;109595;1251;58212;-56
2023/11/08 02:16:01;;;;;;;24.20;15.30;;;;;;;11.83;78.01;99101.05;109628;1253;72620;-57
2023/11/08 02:18:30;;;;;;;26.50;15.60;;;;;;;11.79;78.24;99103.64;109282;1251;69316;-57
2023/11/08 02:21:02;;;;;;;24.90;13.50;;;;;;;11.78;78.39;99104.88;109622;1253;72646;-57
2023/11/08 02:23:31;;;;;;;23.60;14.50;;;;;;;11.68;79.59;99107.65;109192;1253;60883;-56
2023/11/08 02:25:59;;;;;;;23.20;14.90;;;;;;;11.83;78.62;99108.38;109603;1253;60400;-57
2023/11/08 02:28:27;;;;;;;28.50;18.50;;;;;;;11.91;78.80;99108.76;109603;1253;72645;-56
2023/11/08 02:30:54;;;;;;;30.60;20.50;;;;;;;11.95;78.95;99105.58;109624;1253;67511;-59
2023/11/08 02:33:23;;;;;;;29.20;17.90;;;;;;;11.94;78.40;99095.36;109262;1253;71415;-57
2023/11/08 02:35:51;;;;;;;27.40;17.20;;;;;;;11.93;77.84;99090.84;109354;1252;59588;-57
2023/11/08 02:38:19;;;;;;;27.00;19.70;;;;;;;11.82;77.27;99098.38;109570;1253;60023;-57
2023/11/08 02:40:46;;;;;;;30.40;18.00;;;;;;;11.71;77.53;99101.03;109648;1252;72573;-57
2023/11/08 02:43:14;;;;;;;24.20;15.50;;;;;;;11.59;78.85;99100.41;109340;1252;68653;-56
2023/11/08 02:45:41;;;;;;;20.40;14.40;;;;;;;11.57;79.65;99098.05;109557;1253;71251;-57
2023/11/08 02:48:09;;;;;;;26.80;16.20;;;;;;;11.67;79.01;99092.97;109328;1253;60840;-56
2023/11/08 02:50:40;;;;;;;36.80;22.40;;;;;;;11.75;78.36;99089.20;109185;1253;58752;-56
2023/11/08 02:53:07;;;;;;;112.40;52.90;;;;;;;11.81;77.87;99083.52;109650;1252;74097;-56
2023/11/08 02:55:35;;;;;;;37.20;21.60;;;;;;;11.86;77.14;99078.69;109647;1253;67476;-56
2023/11/08 02:58:03;;;;;;;28.60;18.70;;;;;;;11.80;76.68;99078.90;109250;1253;72649;-56
2023/11/08 03:00:30;;;;;;;33.00;18.50;;;;;;;11.76;76.42;99077.36;109561;1253;60836;-58
2023/11/08 03:02:58;;;;;;;31.40;18.80;;;;;;;11.69;76.52;99070.61;109081;1253;59986;-58
2023/11/08 03:05:26;;;;;;;28.90;20.10;;;;;;;11.54;77.27;99076.12;109518;1253;72643;-58
2023/11/08 03:07:54;;;;;;;32.70;19.80;;;;;;;11.55;77.77;99082.89;109537;1253;67096;-59
2023/11/08 03:10:22;;;;;;;29.60;19.00;;;;;;;11.63;78.22;99080.45;109533;1252;72668;-56
2023/11/08 03:12:50;;;;;;;38.40;19.80;;;;;;;11.67;77.41;99072.44;109602;1253;61038;-57
2023/11/08 03:15:21;;;;;;;35.60;21.40;;;;;;;11.69;77.54;99077.76;109601;1253;60017;-58
2023/11/08 03:17:53;;;;;;;24.10;14.70;;;;;;;11.66;78.35;99084.33;109578;1253;72654;-59
2023/11/08 03:20:20;;;;;;;31.70;18.80;;;;;;;11.70;79.23;99082.21;109142;1253;68696;-57
2023/11/08 03:22:48;;;;;;;32.10;20.20;;;;;;;11.77;78.87;99084.34;109220;1253;72740;-58
2023/11/08 03:25:18;;;;;;;34.70;19.10;;;;;;;11.77;78.38;99081.61;109600;1253;60888;-57
2023/11/08 03:27:46;;;;;;;33.10;20.30;;;;;;;11.79;78.51;99078.69;109604;1253;58760;-57
2023/11/08 03:30:15;;;;;;;34.00;18.60;;;;;;;11.83;77.94;99072.98;109621;1252;73846;-57
2023/11/08 03:32:43;;;;;;;;;;;;;;;11.84;77.72;99070.57;109629;1252;68717;-59
2023/11/08 03:35:11;;;;;;;38.60;19.60;;;;;;;11.85;76.90;99064.77;109591;1251;72648;-59
2023/11/08 03:37:42;;;;;;;32.80;20.10;;;;;;;11.88;76.62;99064.07;109608;1251;60862;-61
2023/11/08 03:40:15;;;;;;;33.40;20.30;;;;;;;11.86;76.13;99063.21;109653;1252;58742;-60
2023/11/08 03:42:44;;;;;;;35.10;19.60;;;;;;;11.83;76.51;99070.77;109355;1251;73817;-57
2023/11/08 03:45:12;;;;;;;24.20;16.40;;;;;;;11.90;76.69;99068.96;109582;1256;66893;-57
2023/11/08 03:47:40;;;;;;;38.00;19.70;;;;;;;11.88;76.08;99068.38;109607;1251;72323;-57
2023/11/08 03:50:08;;;;;;;25.40;17.10;;;;;;;11.82;76.85;99063.91;109655;1251;60992;-57
2023/11/08 03:52:36;;;;;;;32.70;19.00;;;;;;;11.77;77.49;99055.52;109277;1252;58721;-58
2023/11/08 03:55:05;;;;;;;33.10;17.70;;;;;;;11.78;77.77;99044.77;109625;1252;73870;-58
2023/11/08 03:57:32;;;;;;;;;;;;;;;11.69;77.81;99036.78;109587;1252;67592;-60
2023/11/08 04:00:00;;;;;;;26.50;16.80;;;;;;;11.57;78.70;99026.98;109634;1253;71578;-58
2023/11/08 04:02:28;;;;;;;30.50;17.20;;;;;;;11.62;78.77;99026.11;109631;1253;60920;-57
2023/11/08 04:04:57;;;;;;;33.60;17.80;;;;;;;11.67;78.27;99020.98;109274;1251;60095;-58
2023/11/08 04:07:24;;;;;;;26.10;15.90;;;;;;;11.68;78.07;99022.27;109256;1253;72672;-57
2023/11/08 04:09:52;;;;;;;29.20;17.00;;;;;;;11.75;78.03;99021.06;109657;1251;69167;-58
2023/11/08 04:12:19;;;;;;;26.10;15.90;;;;;;;11.75;78.27;99022.73;109679;1251;71749;-57
2023/11/08 04:14:47;;;;;;;27.50;16.90;;;;;;;11.77;78.45;99023.74;109663;1253;59551;-56
2023/11/08 04:17:17;;;;;;;26.60;18.00;;;;;;;11.79;78.42;99026.11;109687;1251;59987;-56
2023/11/08 04:19:46;;;;;;;20.00;13.20;;;;;;;11.90;77.55;99029.22;109355;1251;72170;-59
2023/11/08 04:22:17;;;;;;;24.80;16.80;;;;;;;11.86;77.47;99027.45;109659;1250;69286;-59
2023/11/08 04:24:45;;;;;;;27.30;15.70;;;;;;;11.78;78.13;99027.88;109482;1251;72254;-60
2023/11/08 04:27:13;;;;;;;19.70;14.60;;;;;;;11.76;78.00;99028.25;109658;1251;60329;-59
2023/11/08 04:29:41;;;;;;;29.60;18.00;;;;;;;11.71;77.95;99029.63;109671;1250;59974;-60
2023/11/08 04:32:09;;;;;;;23.10;15.90;;;;;;;11.62;78.06;99024.33;109708;1251;72542;-61
2023/11/08 04:34:37;;;;;;;26.30;16.60;;;;;;;11.55;77.94;99022.85;109622;1251;102969;-56
2023/11/08 04:37:09;;;;;;;24.70;15.10;;;;;;;11.60;78.03;99021.37;109688;1250;72646;-57
2023/11/08 04:39:37;;;;;;;29.20;18.40;;;;;;;11.58;78.23;99025.14;109657;1251;59554;-58
2023/11/08 04:42:05;;;;;;;30.00;19.20;;;;;;;11.63;78.14;99024.27;109690;1251;58833;-56
2023/11/08 04:44:33;;;;;;;38.00;20.50;;;;;;;11.68;77.91;99021.58;109652;1250;72972;-57
2023/11/08 04:47:01;;;;;;;27.90;17.40;;;;;;;11.72;77.32;99021.34;109643;1251;67539;-57
2023/11/08 04:49:29;;;;;;;32.80;19.90;;;;;;;11.72;76.85;99026.55;109369;1251;71436;-57
2023/11/08 04:51:56;;;;;;;30.60;18.50;;;;;;;11.58;77.40;99030.42;109714;1250;60995;-59
2023/11/08 04:54:24;;;;;;;41.60;24.80;;;;;;;11.57;77.74;99024.40;109659;1251;59995;-58
2023/11/08 04:56:53;;;;;;;37.50;21.90;;;;;;;11.49;78.17;99014.16;109685;1251;73847;-58
2023/11/08 04:59:20;;;;;;;29.80;19.90;;;;;;;11.48;78.46;99008.23;109632;1251;67156;-58
2023/11/08 05:01:47;;;;;;;37.70;23.20;;;;;;;11.57;78.24;99000.64;109628;1251;72626;-58
2023/11/08 05:04:15;;;;;;;41.90;25.10;;;;;;;11.50;78.34;99003.45;109517;1257;60836;-61
2023/11/08 05:06:43;;;;;;;33.90;20.30;;;;;;;11.49;78.23;99011.52;109542;1253;59967;-59
2023/11/08 05:09:15;;;;;;;30.30;18.30;;;;;;;11.42;78.23;99016.80;109533;1252;72948;-57
2023/11/08 05:11:42;;;;;;;24.90;15.90;;;;;;;11.37;78.33;99021.92;109293;1252;67318;-60
2023/11/08 05:14:11;;;;;;;23.80;17.20;;;;;;;11.43;77.25;99016.48;109281;1251;72414;-59
2023/11/08 05:16:39;;;;;;;;;;;;;;;11.40;77.50;99016.27;109628;1253;59376;-58
2023/11/08 05:19:08;;;;;;;26.70;19.90;;;;;;;11.40;78.10;99017.08;109574;1253;58582;-58
2023/11/08 05:21:35;;;;;;;25.90;16.90;;;;;;;11.37;78.45;99012.23;109635;1251;72595;-57
2023/11/08 05:24:03;;;;;;;25.50;16.50;;;;;;;11.55;78.36;99006.18;109560;1251;67182;-57
2023/11/08 05:26:31;;;;;;;31.10;19.20;;;;;;;11.62;78.54;99013.04;109600;1253;72635;-57
2023/11/08 05:28:58;;;;;;;35.20;19.40;;;;;;;11.66;78.64;99014.38;109589;1256;60801;-56
2023/11/08 05:31:26;;;;;;;38.10;21.20;;;;;;;11.71;78.02;99013.29;109618;1251;59233;-56
2023/11/08 05:33:53;;;;;;;32.30;21.30;;;;;;;11.82;77.93;99009.33;109551;1251;73815;-57
2023/11/08 05:36:21;;;;;;;30.80;22.00;;;;;;;11.84;78.17;99011.25;109601;1251;68394;-57
2023/11/08 05:38:49;;;;;;;37.80;21.50;;;;;;;11.93;77.60;99023.23;109583;1253;72681;-56
2023/11/08 05:41:19;;;;;;;34.50;21.40;;;;;;;11.92;77.82;99016.55;109544;1253;59648;-55
2023/11/08 05:43:47;;;;;;;39.20;21.80;;;;;;;12.03;77.82;99008.01;109666;1251;58741;-56
2023/11/08 05:46:14;;;;;;;38.10;23.00;;;;;;;12.08;77.81;98992.88;109629;1251;72625;-56
2023/11/08 05:48:42;;;;;;;43.50;23.80;;;;;;;12.17;76.95;98993.54;109587;1251;67090;-55
2023/11/08 05:51:09;;;;;;;41.10;23.60;;;;;;;12.15;76.80;98996.66;109618;1252;72616;-56
2023/11/08 05:53:40;;;;;;;66.40;27.50;;;;;;;12.12;76.72;98991.94;109636;1253;59823;-59
2023/11/08 05:56:07;;;;;;;33.30;19.90;;;;;;;12.00;77.57;98984.05;109554;1251;59987;-60
2023/11/08 05:58:35;;;;;;;31.80;18.80;;;;;;;11.89;77.51;98988.88;109591;1251;73746;-58
2023/11/08 06:01:04;;;;;;;29.60;17.50;;;;;;;11.76;78.41;98980.84;109619;1254;67106;-59
2023/11/08 06:03:32;;;;;;;25.50;15.70;;;;;;;11.68;78.20;98978.20;109237;1253;72640;-57
2023/11/08 06:06:00;;;;;;;20.40;13.90;;;;;;;11.59;77.77;98974.88;109519;1253;59623;-58
2023/11/08 06:08:27;;;;;;;19.50;13.10;;;;;;;11.46;78.08;98973.05;109499;1256;60063;-63
2023/11/08 06:10:55;;;;;;;23.40;14.70;;;;;;;11.37;78.82;98962.69;109538;1253;73724;-60
2023/11/08 06:13:22;;;;;;;25.80;13.80;;;;;;;11.36;78.91;98955.70;109564;1253;67179;-60
2023/11/08 06:15:50;;;;;;;23.10;13.40;;;;;;;11.47;79.24;98959.06;109268;1254;72488;-57
2023/11/08 06:18:24;;;;;;;25.40;14.00;;;;;;;11.49;78.66;98954.34;109559;1253;59682;-58
2023/11/08 06:20:52;;;;;;;21.00;13.10;;;;;;;11.44;79.00;98949.50;109465;1252;59198;-59
2023/11/08 06:23:20;;;;;;;20.70;15.30;;;;;;;11.38;79.52;98944.16;109163;1251;75930;-57
2023/11/08 06:25:47;;;;;;;32.30;16.60;;;;;;;11.55;79.33;98944.36;109546;1252;68340;-57
2023/11/08 06:28:15;;;;;;;29.20;17.80;;;;;;;11.76;79.16;98938.41;109569;1253;71765;-57
2023/11/08 06:30:43;;;;;;;23.60;15.60;;;;;;;11.92;78.47;98930.34;109534;1254;62809;-57
2023/11/08 06:33:10;;;;;;;27.70;15.10;;;;;;;11.98;77.87;98925.64;109524;1251;59986;-57
2023/11/08 06:35:40;;;;;;;25.90;18.10;;;;;;;12.06;77.81;98918.75;109255;1251;73797;-57
2023/11/08 06:38:08;;;;;;;39.40;22.50;;;;;;;12.09;78.13;98915.08;109526;1251;68344;-59
2023/11/08 06:40:36;;;;;;;44.10;28.70;;;;;;;12.14;78.53;98912.35;109519;1251;72676;-56
2023/11/08 06:43:03;;;;;;;53.60;30.60;;;;;;;12.30;77.88;98906.21;109367;1253;60849;-56
2023/11/08 06:45:31;;;;;;;49.80;32.30;;;;;;;12.40;77.54;98907.54;109526;1253;58723;-57
2023/11/08 06:47:59;;;;;;;62.10;38.60;;;;;;;12.41;77.70;98902.95;109598;1251;73904;-56
2023/11/08 06:50:27;;;;;;;77.20;46.80;;;;;;;12.42;77.84;98901.21;109538;1251;68436;-56
2023/11/08 06:52:55;;;;;;;104.60;64.10;;;;;;;12.44;77.95;98893.35;109553;1251;72594;-57
2023/11/08 06:55:22;;;;;;;246.80;135.50;;;;;;;12.38;78.82;98894.05;109514;1253;59283;-57
2023/11/08 06:58:07;;;;;;;311.30;142.20;;;;;;;12.43;79.24;98889.86;109322;1251;58792;-57
2023/11/08 07:00:35;;;;;;;298.20;124.70;;;;;;;12.45;79.24;98882.68;109538;1252;73855;-57
2023/11/08 07:03:04;;;;;;;297.80;117.70;;;;;;;12.48;79.71;98880.51;109641;1250;67552;-57
2023/11/08 07:05:32;;;;;;;334.50;117.10;;;;;;;12.58;79.81;98877.94;109554;1253;74043;-56
2023/11/08 07:08:06;;;;;;;198.40;76.40;;;;;;;12.70;79.21;98876.54;109515;1257;63088;-56
2023/11/08 07:10:34;;;;;;;;;;;;;;;12.77;79.20;98866.66;109655;1250;59108;-57
2023/11/08 07:13:02;;;;;;;70.10;38.40;;;;;;;12.79;79.51;98860.83;109621;1251;72605;-57
2023/11/08 07:15:30;;;;;;;65.10;42.20;;;;;;;12.88;79.24;98860.35;109616;1251;70657;-56
2023/11/08 07:17:57;;;;;;;54.50;36.70;;;;;;;13.00;79.26;98860.51;109627;1251;74840;-58
2023/11/08 07:20:25;;;;;;;58.50;34.30;;;;;;;12.87;80.01;98862.05;109585;1255;60040;-59
2023/11/08 07:22:53;;;;;;;75.90;40.00;;;;;;;12.79;80.96;98872.19;109621;1251;62245;-58
2023/11/08 07:25:20;;;;;;;66.20;37.00;;;;;;;12.78;81.71;98874.03;109571;1251;75994;-58
2023/11/08 07:27:48;;;;;;;56.00;32.70;;;;;;;12.77;82.03;98871.13;109614;1251;67339;-58
2023/11/08 07:30:16;;;;;;;56.20;34.60;;;;;;;12.82;82.33;98868.45;109500;1250;74791;-58
2023/11/08 07:32:47;;;;;;;;;;;;;;;12.91;82.70;98874.42;109328;1251;62683;-58
2023/11/08 07:35:15;;;;;;;59.00;36.60;;;;;;;13.01;81.37;98880.10;109614;1256;62004;-58
2023/11/08 07:37:43;;;;;;;50.80;31.40;;;;;;;12.90;81.79;98884.20;109642;1251;74002;-58
2023/11/08 07:40:13;;;;;;;55.30;33.10;;;;;;;12.82;82.76;98885.04;109580;1251;71026;-57
2023/11/08 07:42:41;;;;;;;53.60;34.50;;;;;;;13.00;83.07;98879.68;109187;1251;71283;-57
2023/11/08 07:45:09;;;;;;;55.70;36.40;;;;;;;12.96;83.37;98874.81;109624;1254;61103;-58
2023/11/08 07:47:37;;;;;;;56.60;37.50;;;;;;;13.01;82.95;98871.95;109599;1251;62193;-58
2023/11/08 07:50:06;;;;;;;67.40;43.00;;;;;;;13.04;83.08;98878.61;109705;1251;73773;-58
2023/11/08 07:52:34;;;;;;;57.90;38.40;;;;;;;13.09;82.45;98882.76;109609;1250;68129;-57
2023/11/08 07:55:01;;;;;;;54.40;35.20;;;;;;;13.06;82.78;98882.36;109606;1251;71003;-58
2023/11/08 07:57:29;;;;;;;52.80;35.10;;;;;;;12.93;83.44;98882.40;109255;1253;61056;-60
2023/11/08 07:59:56;;;;;;;53.80;34.40;;;;;;;12.91;84.66;98879.39;109641;1250;62388;-58
2023/11/08 08:02:24;;;;;;;68.70;44.80;;;;;;;12.97;84.33;98879.66;109607;1251;74827;-59
2023/11/08 08:04:53;;;;;;;84.30;48.70;;;;;;;12.80;85.73;98881.77;109632;1251;69996;-57
2023/11/08 08:07:21;;;;;;;83.80;53.10;;;;;;;12.81;86.60;98887.74;109242;1251;71777;-56
2023/11/08 08:09:48;;;;;;;93.40;56.10;;;;;;;12.82;86.92;98889.07;109570;1251;59903;-56
2023/11/08 08:12:16;;;;;;;88.00;49.50;;;;;;;12.87;86.99;98888.01;109554;1251;62226;-59
2023/11/08 08:14:44;;;;;;;65.00;40.10;;;;;;;12.84;87.08;98892.73;109549;1251;76580;-58
2023/11/08 08:17:12;;;;;;;61.50;34.80;;;;;;;12.81;87.54;98897.02;109496;1251;69777;-56
2023/11/08 08:19:40;;;;;;;;;;;;;;;12.92;87.31;98891.04;109531;1253;74946;-59
2023/11/08 08:22:08;;;;;;;50.40;29.70;;;;;;;12.98;87.22;98893.08;109548;1251;63101;-56
2023/11/08 08:24:36;;;;;;;41.00;25.60;;;;;;;13.07;87.10;98891.99;109618;1251;62179;-56
2023/11/08 08:27:03;;;;;;;31.40;20.40;;;;;;;13.07;86.53;98892.65;109659;1251;74027;-56
2023/11/08 08:29:31;;;;;;;34.60;21.50;;;;;;;13.03;86.61;98893.27;109240;1251;71061;-59
2023/11/08 08:31:59;;;;;;;31.90;21.80;;;;;;;13.15;85.65;98892.50;109415;1251;72674;-58
2023/11/08 08:34:27;;;;;;;29.00;20.50;;;;;;;13.17;84.81;98887.79;109627;1252;61591;-60
2023/11/08 08:36:58;;;;;;;30.80;20.20;;;;;;;13.14;84.67;98884.44;109620;1251;60104;-60
2023/11/08 08:39:27;;;;;;;26.10;17.70;;;;;;;13.21;84.27;98883.61;109443;1251;74231;-60
2023/11/08 08:41:56;;;;;;;22.90;17.40;;;;;;;13.19;84.23;98873.66;109629;1251;67747;-59
2023/11/08 08:44:24;;;;;;;29.70;17.00;;;;;;;13.14;84.14;98873.55;109629;1251;74908;-58
2023/11/08 08:46:52;;;;;;;27.40;17.60;;;;;;;13.03;84.90;98868.59;109644;1251;63018;-57
2023/11/08 08:49:20;;;;;;;25.50;17.30;;;;;;;13.07;84.87;98863.05;109335;1250;62293;-56
2023/11/08 08:51:49;;;;;;;26.70;17.10;;;;;;;13.10;84.88;98857.64;109274;1251;76143;-58
2023/11/08 08:54:20;;;;;;;31.00;19.70;;;;;;;13.10;85.08;98850.25;109624;1251;69923;-58
2023/11/08 08:56:49;;;;;;;24.40;17.40;;;;;;;13.06;85.54;98846.65;109626;1251;74909;-57
2023/11/08 08:59:16;;;;;;;23.50;16.90;;;;;;;13.07;85.55;98844.58;109594;1252;61763;-58
2023/11/08 09:01:44;;;;;;;25.00;18.10;;;;;;;13.13;85.35;98842.77;109408;1251;60959;-57
2023/11/08 09:04:11;;;;;;;27.00;17.80;;;;;;;13.11;85.77;98840.40;109632;1251;75588;-57
2023/11/08 09:06:39;;;;;;;23.90;16.80;;;;;;;13.19;85.65;98834.46;109244;1251;69757;-57
2023/11/08 09:09:12;;;;;;;28.20;18.60;;;;;;;13.21;85.70;98832.34;109607;1251;74918;-57
2023/11/08 09:11:40;;;;;;;27.10;17.80;;;;;;;13.27;85.44;98827.86;109534;1253;59954;-57
2023/11/08 09:14:08;;;;;;;32.90;19.10;;;;;;;13.24;85.73;98825.42;109460;1254;62228;-56
2023/11/08 09:16:37;;;;;;;23.70;17.90;;;;;;;13.20;86.09;98821.08;109508;1254;76060;-56
2023/11/08 09:19:08;;;;;;;29.50;20.00;;;;;;;13.20;86.45;98810.80;109501;1253;69782;-56
2023/11/08 09:21:36;;;;;;;32.50;21.20;;;;;;;13.19;86.87;98806.98;109483;1254;73104;-56
2023/11/08 09:24:06;;;;;;;30.70;20.00;;;;;;;13.17;87.32;98807.01;109487;1254;62986;-56
2023/11/08 09:26:39;;;;;;;28.90;21.40;;;;;;;13.23;87.52;98805.27;109307;1254;60977;-57
2023/11/08 09:29:07;;;;;;;37.90;29.10;;;;;;;13.38;88.26;98808.98;109465;1254;74848;-57
2023/11/08 09:31:37;;;;;;;36.40;24.20;;;;;;;13.57;87.88;98812.57;109498;1254;69078;-57
2023/11/08 09:34:07;;;;;;;34.10;22.20;;;;;;;13.50;88.01;98811.23;109472;1254;72562;-57
2023/11/08 09:36:36;;;;;;;30.80;20.70;;;;;;;13.61;87.54;98804.03;109396;1254;63031;-57
2023/11/08 09:39:09;;;;;;;32.20;23.90;;;;;;;13.58;88.03;98798.79;109413;1254;59121;-56
2023/11/08 09:41:38;;;;;;;36.00;25.00;;;;;;;13.72;88.08;98792.48;109492;1254;72681;-56
2023/11/08 09:44:05;;;;;;;33.60;22.80;;;;;;;13.88;87.24;98785.34;109534;1254;69989;-58
2023/11/08 09:46:33;;;;;;;38.20;26.80;;;;;;;13.98;86.57;98776.87;109385;1254;72720;-57
2023/11/08 09:49:01;;;;;;;30.60;20.90;;;;;;;14.04;86.70;98765.23;109204;1254;60683;-58
2023/11/08 09:51:28;;;;;;;34.10;21.20;;;;;;;14.03;86.37;98759.73;109165;1254;62301;-58
2023/11/08 09:53:56;;;;;;;24.80;17.70;;;;;;;14.06;86.31;98753.42;109147;1254;76100;-58
2023/11/08 09:56:24;;;;;;;24.60;17.70;;;;;;;14.07;86.38;98748.10;109091;1254;71047;-57
2023/11/08 09:58:52;;;;;;;27.40;19.90;;;;;;;13.93;86.63;98757.84;109382;1254;73604;-57
2023/11/08 10:01:19;;;;;;;33.50;23.50;;;;;;;13.89;87.44;98763.90;109396;1257;63068;-57
2023/11/08 10:03:49;;;;;;;37.30;25.70;;;;;;;13.95;87.90;98767.90;109273;1254;61814;-57
2023/11/08 10:06:17;;;;;;;50.40;27.30;;;;;;;14.06;88.11;98769.19;109150;1253;76118;-58
2023/11/08 10:08:45;;;;;;;53.40;33.90;;;;;;;14.12;87.62;98763.64;109391;1254;69805;-57
2023/11/08 10:11:12;;;;;;;54.30;36.90;;;;;;;14.21;87.39;98765.48;108960;1257;71510;-57
2023/11/08 10:13:54;;;;;;;47.10;32.80;;;;;;;14.31;87.48;98766.05;108947;1257;62692;-58
2023/11/08 10:16:23;;;;;;;41.50;26.10;;;;;;;14.38;87.45;98762.89;109020;1257;59266;-59
2023/11/08 10:18:57;;;;;;;31.40;21.90;;;;;;;14.38;87.16;98760.74;109113;1256;74843;-57
2023/11/08 10:21:50;;;;;;;33.30;18.10;;;;;;;14.31;87.17;98752.88;109119;1256;68008;-57
2023/11/08 10:24:17;;;;;;;25.30;17.50;;;;;;;14.24;87.84;98752.90;109121;1256;73636;-57
2023/11/08 10:26:46;;;;;;;34.60;20.70;;;;;;;14.32;87.70;98753.50;109138;1254;62712;-57
2023/11/08 10:29:14;;;;;;;40.70;22.70;;;;;;;14.34;87.67;98760.21;109188;1254;61315;-57
2023/11/08 10:31:42;;;;;;;36.30;22.70;;;;;;;14.29;88.10;98753.98;109210;1254;76088;-58
2023/11/08 10:34:13;;;;;;;30.00;20.10;;;;;;;14.25;88.39;98747.70;109230;1254;69408;-57
2023/11/08 10:36:40;;;;;;;27.30;18.20;;;;;;;14.24;88.38;98743.35;109020;1254;74587;-56
2023/11/08 10:39:13;;;;;;;24.60;18.30;;;;;;;14.19;89.22;98738.23;109082;1254;61831;-57
2023/11/08 10:41:43;;;;;;;25.30;17.70;;;;;;;14.36;89.07;98740.64;109237;1251;59845;-56
2023/11/08 10:44:21;;;;;;;25.70;17.20;;;;;;;14.42;88.67;98741.01;109484;1251;73660;-56
2023/11/08 10:46:56;;;;;;;31.00;18.70;;;;;;;14.41;90.01;98738.61;109477;1251;67404;-58
2023/11/08 10:49:23;;;;;;;26.20;17.30;;;;;;;14.66;89.76;98732.17;109276;1251;74039;-57
2023/11/08 10:51:53;;;;;;;24.30;15.40;;;;;;;14.58;89.49;98726.90;109462;1251;63850;-56
2023/11/08 10:54:21;;;;;;;24.90;15.50;;;;;;;14.61;89.53;98726.64;109499;1251;61513;-57
2023/11/08 10:56:50;;;;;;;32.40;19.30;;;;;;;14.78;89.24;98726.52;109542;1251;75972;-58
2023/11/08 10:59:17;;;;;;;45.20;24.90;;;;;;;14.79;89.11;98717.63;109486;1251;71013;-58
2023/11/08 11:01:45;;;;;;;33.30;20.20;;;;;;;14.55;89.46;98711.17;109603;1251;74821;-60
2023/11/08 11:04:13;;;;;;;25.80;18.20;;;;;;;14.37;89.24;98706.92;109417;1250;62657;-58
2023/11/08 11:06:41;;;;;;;25.10;19.20;;;;;;;14.39;89.84;98707.11;109567;1250;61022;-59
2023/11/08 11:09:10;;;;;;;32.70;19.90;;;;;;;14.48;90.07;98710.08;109658;1250;74110;-58
2023/11/08 11:11:42;;;;;;;27.40;19.20;;;;;;;14.53;89.76;98707.55;109203;1250;70611;-58
2023/11/08 11:14:36;;;;;;;29.20;20.40;;;;;;;14.58;88.93;98716.39;109291;1250;72207;-58
2023/11/08 11:17:15;;;;;;;30.20;19.80;;;;;;;14.56;88.72;98718.63;109548;1252;62758;-58
2023/11/08 11:19:43;;;;;;;32.00;19.90;;;;;;;14.68;87.51;98714.30;109491;1250;60931;-60